createdAt,value
2022-09-27T00:03:55.872Z,9.90
2022-09-27T00:06:29.986Z,10.50
2022-09-27T00:11:29.215Z,10.20
2022-09-27T00:13:59.459Z,10.00
2022-09-27T00:16:30.349Z,10.30
2022-09-27T00:19:08.266Z,10.00
2022-09-27T00:21:35.993Z,10.10
2022-09-27T00:31:31.059Z,9.80
2022-09-27T00:34:03.612Z,9.80
2022-09-27T00:36:32.759Z,9.60
2022-09-27T00:39:01.683Z,9.60
2022-09-27T00:44:05.594Z,9.70
2022-09-27T00:46:48.110Z,9.70
2022-09-27T00:49:28.398Z,9.60
2022-09-27T00:52:08.251Z,9.60
2022-09-27T00:54:40.655Z,10.30
2022-09-27T01:00:01.020Z,9.60
2022-09-27T01:04:57.684Z,9.80
2022-09-27T01:09:52.748Z,10.20
2022-09-27T01:15:37.451Z,9.50
2022-09-27T01:18:35.759Z,9.90
2022-09-27T01:21:35.302Z,9.50
2022-09-27T01:24:17.102Z,10.20
2022-09-27T01:27:37.208Z,9.40
2022-09-27T01:30:22.448Z,9.40
2022-09-27T01:33:28.050Z,9.50
2022-09-27T01:36:03.780Z,9.80
2022-09-27T01:39:05.081Z,10.40
2022-09-27T01:41:55.580Z,9.40
2022-09-27T01:44:38.876Z,9.20
2022-09-27T01:47:27.430Z,9.00
2022-09-27T01:49:57.940Z,9.40
2022-09-27T01:52:37.580Z,9.20
2022-09-27T01:55:12.277Z,9.20
2022-09-27T01:57:54.987Z,7.00
2022-09-27T02:03:00.145Z,9.30
2022-09-27T02:05:36.297Z,9.30
2022-09-27T02:08:13.032Z,8.90
2022-09-27T02:10:45.345Z,9.40
2022-09-27T02:13:26.070Z,8.90
2022-09-27T02:16:03.343Z,9.30
2022-09-27T02:18:46.934Z,9.20
2022-09-27T02:21:19.887Z,9.40
2022-09-27T02:23:58.248Z,9.40
2022-09-27T02:31:39.854Z,9.30
2022-09-27T02:34:32.582Z,9.00
2022-09-27T02:37:00.486Z,9.40
2022-09-27T02:41:58.521Z,9.00
2022-09-27T02:44:28.943Z,9.20
2022-09-27T02:47:43.974Z,9.20
2022-09-27T02:50:59.670Z,9.20
2022-09-27T02:53:40.313Z,9.20
2022-09-27T02:56:34.327Z,10.20
2022-09-27T02:59:32.458Z,8.90
2022-09-27T03:02:23.278Z,9.10
2022-09-27T03:05:05.597Z,9.10
2022-09-27T03:15:00.254Z,8.90
2022-09-27T03:39:36.111Z,9.40
2022-09-27T03:51:55.147Z,10.30
2022-09-27T03:54:22.245Z,9.20
2022-09-27T04:11:35.728Z,10.40
2022-09-27T04:14:05.503Z,9.30
2022-09-27T04:19:04.271Z,8.80
2022-09-27T04:26:26.760Z,9.80
2022-09-27T04:33:50.689Z,10.40
2022-09-27T04:36:27.571Z,10.10
2022-09-27T04:39:02.612Z,9.40
2022-09-27T04:41:30.746Z,10.20
2022-09-27T04:46:31.752Z,9.70
2022-09-27T04:49:00.980Z,9.90
2022-09-27T04:51:28.946Z,9.60
2022-09-27T04:53:59.272Z,9.60
2022-09-27T04:56:26.512Z,9.60
2022-09-27T04:58:54.124Z,10.10
2022-09-27T05:01:21.630Z,10.20
2022-09-27T05:03:49.292Z,10.70
2022-09-27T05:11:12.802Z,10.90
2022-09-27T05:16:08.200Z,10.70
2022-09-27T05:25:58.126Z,10.40
2022-09-27T05:28:25.384Z,11.30
2022-09-27T05:30:52.652Z,11.00
2022-09-27T05:35:58.115Z,10.30
2022-09-27T05:45:48.818Z,11.90
2022-09-27T05:53:11.729Z,10.30
2022-09-27T05:58:10.159Z,10.40
2022-09-27T06:00:39.083Z,10.60
2022-09-27T06:03:08.012Z,10.70
2022-09-27T06:05:38.846Z,12.20
2022-09-27T06:08:10.433Z,10.90
2022-09-27T06:10:39.351Z,11.00
2022-09-27T06:13:11.263Z,11.30
2022-09-27T06:15:43.406Z,11.30
2022-09-27T06:18:18.212Z,11.50
2022-09-27T06:23:19.922Z,11.80
2022-09-27T06:28:16.691Z,12.30
2022-09-27T06:30:47.474Z,12.20
2022-09-27T06:33:18.203Z,11.60
2022-09-27T06:38:17.071Z,12.50
2022-09-27T06:40:48.691Z,12.70
2022-09-27T06:43:20.791Z,12.50
2022-09-27T06:48:17.237Z,13.70
2022-09-27T06:50:46.968Z,13.80
2022-09-27T06:53:17.359Z,13.90
2022-09-27T06:55:47.012Z,15.20
2022-09-27T07:06:06.608Z,14.90
2022-09-27T07:08:36.018Z,14.90
2022-09-27T07:11:08.555Z,14.80
2022-09-27T07:13:40.402Z,14.70
2022-09-27T07:16:08.033Z,14.90
2022-09-27T07:18:35.354Z,15.00
2022-09-27T07:21:02.759Z,15.10
2022-09-27T07:23:29.826Z,14.60
2022-09-27T07:28:29.002Z,15.60
2022-09-27T07:33:24.795Z,14.90
2022-09-27T07:43:15.834Z,14.10
2022-09-27T07:48:16.055Z,14.60
2022-09-27T07:50:43.996Z,14.20
2022-09-27T07:55:42.432Z,14.10
2022-09-27T07:58:12.361Z,15.80
2022-09-27T08:00:41.027Z,14.90
2022-09-27T08:03:15.791Z,15.10
2022-09-27T08:05:45.493Z,15.20
2022-09-27T08:10:44.553Z,16.30
2022-09-27T08:18:09.672Z,16.50
2022-09-27T08:20:37.646Z,15.60
2022-09-27T08:25:32.595Z,15.80
2022-09-27T08:28:04.699Z,15.90
2022-09-27T08:33:03.474Z,15.60
2022-09-27T08:35:34.271Z,15.80
2022-09-27T08:38:03.530Z,15.70
2022-09-27T08:41:07.919Z,15.90
2022-09-27T08:43:50.166Z,15.80
2022-09-27T08:47:04.583Z,15.70
2022-09-27T08:49:49.343Z,15.60
2022-09-27T08:52:28.270Z,15.80
2022-09-27T08:55:01.571Z,15.30
2022-09-27T09:00:12.137Z,15.00
2022-09-27T09:02:42.252Z,14.20
2022-09-27T09:05:19.952Z,14.90
2022-09-27T09:08:13.169Z,14.50
2022-09-27T09:14:03.222Z,14.20
2022-09-27T09:17:12.251Z,14.50
2022-09-27T09:22:48.849Z,14.90
2022-09-27T09:25:40.708Z,15.30
2022-09-27T09:28:56.929Z,15.10
2022-09-27T09:34:19.496Z,14.70
2022-09-27T09:37:13.201Z,14.80
2022-09-27T09:40:13.032Z,15.00
2022-09-27T09:43:06.834Z,15.00
2022-09-27T09:45:41.799Z,14.90
2022-09-27T09:48:39.569Z,14.60
2022-09-27T09:51:15.355Z,14.10
2022-09-27T09:54:29.557Z,14.70
2022-09-27T09:57:12.170Z,15.10
2022-09-27T10:00:14.867Z,14.50
2022-09-27T10:02:48.098Z,14.30
2022-09-27T10:05:24.982Z,14.50
2022-09-27T10:07:57.691Z,14.40
2022-09-27T10:12:52.804Z,15.20
2022-09-27T10:17:53.669Z,13.70
2022-09-27T10:20:56.930Z,14.50
2022-09-27T10:23:25.380Z,14.50
2022-09-27T10:25:58.684Z,14.40
2022-09-27T10:28:39.329Z,14.40
2022-09-27T10:31:13.583Z,14.70
2022-09-27T10:33:57.070Z,14.30
2022-09-27T10:36:35.207Z,15.60
2022-09-27T10:39:07.377Z,14.30
2022-09-27T10:41:38.466Z,14.70
2022-09-27T10:44:32.593Z,14.30
2022-09-27T10:47:19.662Z,14.20
2022-09-27T10:52:24.353Z,15.00
2022-09-27T10:55:08.245Z,14.00
2022-09-27T11:00:09.479Z,14.50
2022-09-27T11:02:39.896Z,13.90
2022-09-27T11:05:15.312Z,14.10
2022-09-27T11:07:57.787Z,13.80
2022-09-27T11:10:37.493Z,14.70
2022-09-27T11:13:20.261Z,13.90
2022-09-27T11:16:28.990Z,13.70
2022-09-27T11:19:16.701Z,15.10
2022-09-27T11:22:24.626Z,14.00
2022-09-27T11:25:20.279Z,14.60
2022-09-27T11:28:08.840Z,13.60
2022-09-27T11:31:11.595Z,15.10
2022-09-27T11:34:01.828Z,14.10
2022-09-27T11:36:54.671Z,15.20
2022-09-27T11:39:41.017Z,14.00
2022-09-27T11:42:55.687Z,15.10
2022-09-27T11:48:46.014Z,13.70
2022-09-27T11:54:11.085Z,14.70
2022-09-27T11:57:09.325Z,13.60
2022-09-27T12:00:10.952Z,13.30
2022-09-27T12:02:52.979Z,13.30
2022-09-27T12:06:06.348Z,13.30
2022-09-27T12:08:44.227Z,13.50
2022-09-27T12:11:26.653Z,13.40
2022-09-27T12:14:06.975Z,13.50
2022-09-27T12:16:40.177Z,13.10
2022-09-27T12:19:36.238Z,13.50
2022-09-27T12:22:08.171Z,13.90
2022-09-27T12:27:30.987Z,12.60
2022-09-27T12:30:00.041Z,13.40
2022-09-27T12:32:42.096Z,13.80
2022-09-27T12:35:23.482Z,13.90
2022-09-27T12:38:44.732Z,13.20
2022-09-27T12:41:19.041Z,12.80
2022-09-27T12:43:49.896Z,13.00
2022-09-27T12:46:51.108Z,12.90
2022-09-27T12:50:01.516Z,13.60
2022-09-27T12:52:39.466Z,12.90
2022-09-27T12:55:18.505Z,13.90
2022-09-27T12:58:13.969Z,12.70
2022-09-27T13:01:30.808Z,13.00
2022-09-27T13:04:20.619Z,12.80
2022-09-27T13:07:20.286Z,12.70
2022-09-27T13:10:01.329Z,12.90
2022-09-27T13:12:34.119Z,13.20
2022-09-27T13:15:18.680Z,12.90
2022-09-27T13:18:03.705Z,13.30
2022-09-27T13:20:37.142Z,12.70
2022-09-27T13:23:19.529Z,12.80
2022-09-27T13:26:04.068Z,12.70
2022-09-27T13:31:14.052Z,12.60
2022-09-27T13:33:53.236Z,13.50
2022-09-27T13:36:32.912Z,12.80
2022-09-27T13:39:10.458Z,12.60
2022-09-27T13:42:15.461Z,13.00
2022-09-27T13:45:24.475Z,12.70
2022-09-27T13:47:55.551Z,12.90
2022-09-27T13:50:40.446Z,13.70
2022-09-27T13:53:22.395Z,13.00
2022-09-27T13:55:54.178Z,13.40
2022-09-27T13:58:35.797Z,13.10
2022-09-27T14:01:50.320Z,12.90
2022-09-27T14:04:45.469Z,13.60
2022-09-27T14:07:19.101Z,13.20
2022-09-27T14:09:53.321Z,13.10
2022-09-27T14:12:29.203Z,12.60
2022-09-27T14:14:59.558Z,13.20
2022-09-27T14:22:24.463Z,13.70
2022-09-27T14:24:55.145Z,13.50
2022-09-27T14:27:35.666Z,13.90
2022-09-27T14:30:18.383Z,13.50
2022-09-27T14:32:55.397Z,13.80
2022-09-27T14:35:48.100Z,14.90
2022-09-27T14:38:37.000Z,13.80
2022-09-27T14:41:08.468Z,13.20
2022-09-27T14:43:43.984Z,13.70
2022-09-27T14:46:30.342Z,13.90
2022-09-27T14:48:59.366Z,13.90
2022-09-27T14:51:32.778Z,14.20
2022-09-27T14:54:04.633Z,13.60
2022-09-27T14:56:37.816Z,12.60
2022-09-27T14:59:16.401Z,13.40
2022-09-27T15:01:54.641Z,13.30
2022-09-27T15:04:24.577Z,13.50
2022-09-27T15:06:55.759Z,14.00
2022-09-27T15:09:24.399Z,13.30
2022-09-27T15:12:05.237Z,13.50
2022-09-27T15:14:34.090Z,13.40
2022-09-27T15:19:34.743Z,13.70
2022-09-27T15:22:33.994Z,13.30
2022-09-27T15:25:20.051Z,13.20
2022-09-27T15:27:56.027Z,12.50
2022-09-27T15:30:37.404Z,13.10
2022-09-27T15:33:06.874Z,12.60
2022-09-27T15:35:36.750Z,12.90
2022-09-27T15:38:28.127Z,13.20
2022-09-27T15:43:40.862Z,13.10
2022-09-27T15:46:35.445Z,13.50
2022-09-27T15:49:26.486Z,12.70
2022-09-27T15:51:57.746Z,13.90
2022-09-27T15:54:30.346Z,12.80
2022-09-27T15:57:04.669Z,12.60
2022-09-27T15:59:35.699Z,12.20
2022-09-27T16:02:13.625Z,13.20
2022-09-27T16:09:38.347Z,12.40
2022-09-27T16:12:05.461Z,13.20
2022-09-27T16:17:00.249Z,13.40
2022-09-27T16:21:55.464Z,12.90
2022-09-27T16:34:17.410Z,12.20
2022-09-27T16:36:44.532Z,11.10
2022-09-27T16:39:14.028Z,12.00
2022-09-27T16:41:44.347Z,12.70
2022-09-27T16:44:17.615Z,11.70
2022-09-27T16:46:48.265Z,12.10
2022-09-27T16:49:34.193Z,11.60
2022-09-27T16:54:30.073Z,12.00
2022-09-27T16:57:00.350Z,12.20
2022-09-27T17:04:28.012Z,12.00
2022-09-27T17:06:57.186Z,11.90
2022-09-27T17:09:25.140Z,12.00
2022-09-27T17:21:46.911Z,11.80
2022-09-27T17:24:15.120Z,11.50
2022-09-27T17:29:13.238Z,11.70
2022-09-27T17:31:42.702Z,11.70
2022-09-27T17:34:13.351Z,11.50
2022-09-27T17:36:48.639Z,11.50
2022-09-27T17:39:19.435Z,11.60
2022-09-27T17:41:49.207Z,12.30
2022-09-27T17:44:19.282Z,11.50
2022-09-27T17:46:48.473Z,11.80
2022-09-27T17:49:40.136Z,11.80
2022-09-27T17:57:04.638Z,12.20
2022-09-27T18:04:32.933Z,11.70
2022-09-27T18:12:01.357Z,12.20
2022-09-27T18:17:01.381Z,11.80
2022-09-27T18:22:00.939Z,11.90
2022-09-27T18:35:22.914Z,11.70
2022-09-27T18:40:38.074Z,11.70
2022-09-27T18:45:38.781Z,12.00
2022-09-27T18:50:40.043Z,11.10
2022-09-27T18:53:09.614Z,11.50
2022-09-27T18:55:42.078Z,11.60
2022-09-27T18:58:14.657Z,12.20
2022-09-27T19:00:46.610Z,11.50
2022-09-27T19:03:16.776Z,11.40
2022-09-27T19:06:04.816Z,12.20
2022-09-27T19:11:12.586Z,11.40
2022-09-27T19:16:21.217Z,12.10
2022-09-27T19:21:28.910Z,11.80
2022-09-27T19:23:57.210Z,11.40
2022-09-27T19:26:28.704Z,12.10
2022-09-27T19:31:29.850Z,12.40
2022-09-27T19:36:29.501Z,11.60
2022-09-27T19:41:26.814Z,12.30
2022-09-27T19:46:25.011Z,11.90
2022-09-27T19:51:24.723Z,11.40
2022-09-27T19:53:53.421Z,11.30
2022-09-27T20:01:23.591Z,11.30
2022-09-27T20:03:55.354Z,12.30
2022-09-27T20:06:22.586Z,11.40
2022-09-27T20:11:22.262Z,12.00
2022-09-27T20:13:52.606Z,11.40
2022-09-27T20:16:25.254Z,11.10
2022-09-27T20:18:58.606Z,11.10
2022-09-27T20:21:34.506Z,11.20
2022-09-27T20:24:04.537Z,11.10
2022-09-27T20:26:34.714Z,11.50
2022-09-27T20:29:05.316Z,11.00
2022-09-27T20:31:50.595Z,12.30
2022-09-27T20:34:28.728Z,11.30
2022-09-27T20:36:55.947Z,11.00
2022-09-27T20:41:51.542Z,10.50
2022-09-27T20:44:21.936Z,11.30
2022-09-27T20:49:19.265Z,11.30
2022-09-27T20:51:51.608Z,11.60
2022-09-27T20:54:19.098Z,11.30
2022-09-27T20:56:48.881Z,10.20
2022-09-27T20:59:23.511Z,11.00
2022-09-27T21:01:53.454Z,12.20
2022-09-27T21:04:21.624Z,12.10
2022-09-27T21:09:19.923Z,10.80
2022-09-27T21:11:52.057Z,11.20
2022-09-27T21:16:47.870Z,10.70
2022-09-27T21:19:15.246Z,12.40
2022-09-27T21:21:42.645Z,11.70
2022-09-27T21:24:10.158Z,11.60
2022-09-27T21:29:11.886Z,10.90
2022-09-27T21:31:39.607Z,11.10
2022-09-27T21:34:06.823Z,12.30
2022-09-27T21:36:39.736Z,11.10
2022-09-27T21:39:09.492Z,10.50
2022-09-27T21:41:40.056Z,11.00
2022-09-27T21:46:40.164Z,11.20
2022-09-27T21:51:40.114Z,11.10
2022-09-27T21:54:12.322Z,11.00
2022-09-27T21:56:40.800Z,11.00
2022-09-27T21:59:13.247Z,11.00
2022-09-27T22:01:43.685Z,12.20
2022-09-27T22:04:11.217Z,10.90
2022-09-27T22:06:39.841Z,10.20
2022-09-27T22:09:12.970Z,11.60
2022-09-27T22:11:44.446Z,10.80
2022-09-27T22:14:14.890Z,10.70
2022-09-27T22:16:42.261Z,10.20
2022-09-27T22:19:13.880Z,10.60
2022-09-27T22:21:42.524Z,11.00
2022-09-27T22:24:18.373Z,10.70
2022-09-27T22:26:51.988Z,10.80
2022-09-27T22:29:19.778Z,10.30
2022-09-27T22:31:47.999Z,10.40
2022-09-27T22:34:28.865Z,11.20
2022-09-27T22:37:01.060Z,11.00
2022-09-27T22:41:57.290Z,11.80
2022-09-27T22:44:24.417Z,10.20
2022-09-27T22:46:51.944Z,10.90
2022-09-27T22:51:47.120Z,10.70
2022-09-27T22:54:14.163Z,10.00
2022-09-27T22:56:41.414Z,11.40
2022-09-27T23:01:37.006Z,9.80
2022-09-27T23:06:33.439Z,11.30
2022-09-27T23:09:01.382Z,11.70
2022-09-27T23:18:57.066Z,9.80
2022-09-27T23:21:27.111Z,9.80
2022-09-27T23:23:57.046Z,9.90
2022-09-27T23:26:27.272Z,9.90
2022-09-27T23:29:00.607Z,10.30
2022-09-27T23:31:33.476Z,9.90
2022-09-27T23:34:04.731Z,10.40
2022-09-27T23:39:01.507Z,10.00
2022-09-27T23:43:56.777Z,10.20
2022-09-27T23:46:27.307Z,9.70
2022-09-27T23:48:58.815Z,10.10
2022-09-27T23:58:49.262Z,10.00
